Terminal Aerodrome Forecast
Issued by NWS

Home | Current Version | Previous Version | Text Only | Print | Product List | Glossary On
Versions: 1 2 3 4 5 6 7 8 9 10 11 12 13
000
FTUS43 KDTX 010800 AAA
TAFDET
TAF AMD
KDET 010803Z 0108/0206 00000KT 6SM BR OVC005
     FM011400 05005KT P6SM SCT006 OVC012
     FM011900 08005KT P6SM BKN022
     FM020000 12003KT P6SM SCT022 BKN035=

USA.gov is the U.S. government's official web portal to all federal, state and local government web resources and services.